createdAt,value
2022-12-17T00:01:42.308Z,98663.94
2022-12-17T00:04:33.453Z,98660.53
2022-12-17T00:07:24.146Z,98664.22
2022-12-17T00:10:14.336Z,98666.13
2022-12-17T00:13:05.915Z,98665.69
2022-12-17T00:15:56.653Z,98672.22
2022-12-17T00:21:58.826Z,98669.06
2022-12-17T00:24:49.141Z,98674.81
2022-12-17T00:27:40.309Z,98679.44
2022-12-17T00:30:30.646Z,98679.53
2022-12-17T00:33:21.788Z,98671.66
2022-12-17T00:36:14.356Z,98686.19
2022-12-17T00:39:05.409Z,98691.91
2022-12-17T00:41:55.745Z,98686.59
2022-12-17T00:44:47.852Z,98695.34
2022-12-17T00:47:38.108Z,98692.97
2022-12-17T00:50:29.792Z,98705.94
2022-12-17T00:53:21.013Z,98701.97
2022-12-17T00:56:12.215Z,98692.09
2022-12-17T00:59:03.096Z,98686.44
2022-12-17T01:01:53.471Z,98695.94
2022-12-17T01:04:45.018Z,98695.75
2022-12-17T01:07:35.970Z,98690.50
2022-12-17T01:10:27.355Z,98694.84
2022-12-17T01:13:18.245Z,98695.91
2022-12-17T01:16:11.176Z,98703.34
2022-12-17T01:19:02.436Z,98703.22
2022-12-17T01:21:52.658Z,98694.72
2022-12-17T01:24:44.406Z,98695.78
2022-12-17T01:27:34.618Z,98690.38
2022-12-17T01:30:26.967Z,98690.66
2022-12-17T01:33:23.510Z,98697.25
2022-12-17T01:36:18.635Z,98704.28
2022-12-17T01:39:09.370Z,98708.59
2022-12-17T01:42:00.205Z,98710.81
2022-12-17T01:45:06.661Z,98726.00
2022-12-17T01:48:17.062Z,98719.09
2022-12-17T01:51:15.525Z,98714.03
2022-12-17T01:54:09.590Z,98721.06
2022-12-17T01:57:02.705Z,98723.94
2022-12-17T02:00:27.034Z,98728.84
2022-12-17T02:03:19.344Z,98730.53
2022-12-17T02:06:24.473Z,98735.44
2022-12-17T02:09:34.301Z,98743.53
2022-12-17T02:12:47.127Z,98746.13
2022-12-17T02:15:44.780Z,98745.97
2022-12-17T02:18:56.670Z,98748.16
2022-12-17T02:21:50.190Z,98745.13
2022-12-17T02:24:52.940Z,98742.31
2022-12-17T02:27:44.797Z,98754.78
2022-12-17T02:30:37.935Z,98753.44
2022-12-17T02:33:30.750Z,98758.88
2022-12-17T02:36:26.233Z,98760.28
2022-12-17T02:39:17.080Z,98757.78
2022-12-17T02:42:13.419Z,98767.66
2022-12-17T02:45:04.804Z,98768.34
2022-12-17T02:48:03.008Z,98771.78
2022-12-17T02:50:53.647Z,98766.84
2022-12-17T02:53:44.811Z,98776.00
2022-12-17T02:56:36.324Z,98766.38
2022-12-17T02:59:27.699Z,98777.59
2022-12-17T03:02:19.696Z,98776.69
2022-12-17T03:05:43.582Z,98776.28
2022-12-17T03:08:29.729Z,98780.59
2022-12-17T03:11:21.528Z,98774.59
2022-12-17T03:14:11.872Z,98774.44
2022-12-17T03:17:05.593Z,98785.44
2022-12-17T03:19:55.853Z,98792.63
2022-12-17T03:22:46.997Z,98801.84
2022-12-17T03:25:37.814Z,98797.28
2022-12-17T03:28:30.632Z,98797.75
2022-12-17T03:31:21.129Z,98800.69
2022-12-17T03:34:12.886Z,98806.88
2022-12-17T03:37:03.736Z,98808.59
2022-12-17T03:39:54.376Z,98806.97
2022-12-17T03:42:45.676Z,98811.97
2022-12-17T03:45:37.371Z,98815.03
2022-12-17T03:48:32.308Z,98807.38
2022-12-17T03:51:24.080Z,98814.19
2022-12-17T03:54:14.893Z,98815.72
2022-12-17T03:57:05.532Z,98815.56
2022-12-17T03:59:56.579Z,98812.69
2022-12-17T04:03:00.721Z,98815.91
2022-12-17T04:05:52.078Z,98818.16
2022-12-17T04:08:42.284Z,98818.50
2022-12-17T04:11:32.931Z,98827.91
2022-12-17T04:14:23.265Z,98825.13
2022-12-17T04:17:13.970Z,98828.25
2022-12-17T04:20:04.240Z,98829.53
2022-12-17T04:22:55.386Z,98832.72
2022-12-17T04:25:45.681Z,98831.25
2022-12-17T04:28:36.825Z,98828.13
2022-12-17T04:31:27.552Z,98827.09
2022-12-17T04:34:18.768Z,98832.91
2022-12-17T04:37:08.943Z,98833.44
2022-12-17T04:39:59.868Z,98836.72
2022-12-17T04:42:50.113Z,98835.19
2022-12-17T04:45:41.156Z,98840.47
2022-12-17T04:48:31.405Z,98837.44
2022-12-17T04:51:22.476Z,98838.13
2022-12-17T04:54:12.694Z,98836.44
2022-12-17T04:57:03.813Z,98842.94
2022-12-17T04:59:54.563Z,98845.91
2022-12-17T05:02:45.727Z,98849.16
2022-12-17T05:05:36.078Z,98843.00
2022-12-17T05:08:27.108Z,98842.50
2022-12-17T05:11:25.136Z,98853.41
2022-12-17T05:14:16.277Z,98848.97
2022-12-17T05:17:06.503Z,98855.22
2022-12-17T05:19:57.648Z,98857.78
2022-12-17T05:22:48.558Z,98864.97
2022-12-17T05:25:39.720Z,98872.91
2022-12-17T05:28:29.958Z,98870.34
2022-12-17T05:31:21.617Z,98869.69
2022-12-17T05:34:12.842Z,98883.38
2022-12-17T05:37:20.354Z,98864.91
2022-12-17T05:40:12.856Z,98873.97
2022-12-17T05:43:25.070Z,98872.09
2022-12-17T05:46:15.911Z,98876.69
2022-12-17T05:49:06.365Z,98875.66
2022-12-17T05:51:57.529Z,98873.78
2022-12-17T05:54:50.578Z,98869.19
2022-12-17T05:57:41.852Z,98860.78
2022-12-17T06:00:32.887Z,98861.13
2022-12-17T06:03:24.710Z,98856.34
2022-12-17T06:06:16.179Z,98874.97
2022-12-17T06:09:07.326Z,98878.06
2022-12-17T06:12:02.536Z,98878.38
2022-12-17T06:14:54.261Z,98887.94
2022-12-17T06:17:45.288Z,98892.03
2022-12-17T06:20:36.469Z,98887.28
2022-12-17T06:23:29.687Z,98897.53
2022-12-17T06:26:20.319Z,98903.16
2022-12-17T06:29:10.723Z,98913.97
2022-12-17T06:32:02.389Z,98917.22
2022-12-17T06:34:53.291Z,98910.72
2022-12-17T06:37:44.872Z,98915.34
2022-12-17T06:40:36.523Z,98928.13
2022-12-17T06:43:27.770Z,98934.81
2022-12-17T06:46:17.968Z,98939.44
2022-12-17T06:49:09.076Z,98944.56
2022-12-17T06:51:59.193Z,98951.91
2022-12-17T06:54:50.140Z,98952.25
2022-12-17T06:57:41.828Z,98954.47
2022-12-17T07:00:35.481Z,98950.72
2022-12-17T07:03:30.525Z,98948.47
2022-12-17T07:06:21.706Z,98947.81
2022-12-17T07:09:12.446Z,98950.38
2022-12-17T07:12:02.996Z,98956.19
2022-12-17T07:14:54.158Z,98955.50
2022-12-17T07:17:47.284Z,98958.03
2022-12-17T07:20:38.340Z,98969.16
2022-12-17T07:23:29.061Z,98972.94
2022-12-17T07:26:19.719Z,98979.25
2022-12-17T07:29:10.591Z,98980.44
2022-12-17T07:32:01.785Z,98988.81
2022-12-17T07:34:52.710Z,98982.88
2022-12-17T07:37:43.865Z,98990.50
2022-12-17T07:40:34.966Z,98997.38
2022-12-17T07:43:31.401Z,99005.69
2022-12-17T07:46:22.023Z,99021.34
2022-12-17T07:49:13.395Z,99023.09
2022-12-17T07:52:04.407Z,99026.19
2022-12-17T07:54:54.628Z,99028.13
2022-12-17T07:57:45.972Z,99035.53
2022-12-17T08:00:36.323Z,99041.19
2022-12-17T08:03:29.125Z,99047.88
2022-12-17T08:06:19.779Z,99054.56
2022-12-17T08:09:09.982Z,99058.50
2022-12-17T08:12:01.153Z,99055.41
2022-12-17T08:14:51.339Z,99060.16
2022-12-17T08:17:43.826Z,99064.81
2022-12-17T08:20:34.851Z,99070.06
2022-12-17T08:23:26.140Z,99070.34
2022-12-17T08:26:16.382Z,99066.72
2022-12-17T08:29:07.524Z,99072.97
2022-12-17T08:31:57.870Z,99061.09
2022-12-17T08:34:48.927Z,99060.72
2022-12-17T08:37:39.345Z,99053.19
2022-12-17T08:40:30.229Z,99057.50
2022-12-17T08:43:20.444Z,99061.69
2022-12-17T08:46:12.451Z,99061.09
2022-12-17T08:49:03.108Z,99062.59
2022-12-17T08:51:54.153Z,99060.72
2022-12-17T08:54:44.628Z,99058.91
2022-12-17T08:57:36.821Z,99069.59
2022-12-17T09:00:28.565Z,99069.19
2022-12-17T09:03:21.793Z,99063.63
2022-12-17T09:06:12.654Z,99068.56
2022-12-17T09:09:03.790Z,99062.81
2022-12-17T09:11:55.735Z,99068.88
2022-12-17T09:14:47.324Z,99056.09
2022-12-17T09:17:38.972Z,99060.97
2022-12-17T09:20:29.803Z,99071.94
2022-12-17T09:23:20.963Z,99073.72
2022-12-17T09:26:13.054Z,99075.97
2022-12-17T09:29:04.115Z,99077.56
2022-12-17T09:31:54.310Z,99072.22
2022-12-17T09:37:56.471Z,99094.94
2022-12-17T09:40:49.736Z,99093.94
2022-12-17T09:44:03.045Z,99096.75
2022-12-17T09:47:26.036Z,99101.19
2022-12-17T09:50:20.134Z,99109.59
2022-12-17T09:53:10.522Z,99110.16
2022-12-17T09:56:10.713Z,99108.22
2022-12-17T09:59:01.423Z,99115.25
2022-12-17T10:01:55.048Z,99106.72
2022-12-17T10:04:54.053Z,99098.47
2022-12-17T10:07:52.142Z,99098.91
2022-12-17T10:10:47.943Z,99100.78
2022-12-17T10:13:42.511Z,99102.69
2022-12-17T10:16:53.128Z,99100.25
2022-12-17T10:19:51.377Z,99110.50
2022-12-17T10:22:44.503Z,99114.56
2022-12-17T10:25:38.884Z,99106.00
2022-12-17T10:28:41.501Z,99097.81
2022-12-17T10:31:39.010Z,99111.31
2022-12-17T10:34:37.472Z,99110.31
2022-12-17T10:37:46.461Z,99118.78
2022-12-17T10:40:45.627Z,99125.84
2022-12-17T10:43:59.079Z,99128.09
2022-12-17T10:46:52.509Z,99137.72
2022-12-17T10:49:44.540Z,99131.94
2022-12-17T10:52:49.569Z,99135.53
2022-12-17T10:55:49.656Z,99140.50
2022-12-17T10:58:50.922Z,99131.78
2022-12-17T11:01:44.616Z,99134.00
2022-12-17T11:04:52.330Z,99140.38
2022-12-17T11:07:56.149Z,99122.44
2022-12-17T11:10:51.454Z,99127.53
2022-12-17T11:13:51.588Z,99125.81
2022-12-17T11:16:50.071Z,99118.28
2022-12-17T11:20:05.135Z,99102.16
2022-12-17T11:23:05.481Z,99110.66
2022-12-17T11:26:38.954Z,99103.28
2022-12-17T11:29:47.092Z,99108.59
2022-12-17T11:33:13.679Z,99100.19
2022-12-17T11:36:36.917Z,99102.91
2022-12-17T11:39:47.732Z,99101.47
2022-12-17T11:42:48.620Z,99115.94
2022-12-17T11:46:19.436Z,99114.53
2022-12-17T11:49:51.028Z,99118.53
2022-12-17T11:56:54.784Z,99114.34
2022-12-17T12:00:23.480Z,99116.16
2022-12-17T12:04:24.789Z,99106.72
2022-12-17T12:07:35.282Z,99110.78
2022-12-17T12:10:36.284Z,99108.06
2022-12-17T12:13:39.917Z,99113.22
2022-12-17T12:16:43.956Z,99120.69
2022-12-17T12:19:53.067Z,99109.56
2022-12-17T12:23:06.313Z,99118.88
2022-12-17T12:26:33.376Z,99113.47
2022-12-17T12:29:55.328Z,99110.28
2022-12-17T12:33:05.500Z,99115.16
2022-12-17T12:36:00.570Z,99118.63
2022-12-17T12:38:59.963Z,99118.81
2022-12-17T12:42:44.384Z,99131.81
2022-12-17T12:46:06.867Z,99120.25
2022-12-17T12:49:22.896Z,99120.13
2022-12-17T12:52:15.585Z,99118.16
2022-12-17T12:55:06.093Z,99118.84
2022-12-17T12:58:03.524Z,99122.09
2022-12-17T13:01:14.947Z,99115.50
2022-12-17T13:04:05.807Z,99122.09
2022-12-17T13:06:54.602Z,99122.84
2022-12-17T13:09:34.467Z,99116.31
2022-12-17T13:12:32.409Z,99122.06
2022-12-17T13:15:07.257Z,99112.97
2022-12-17T13:18:07.534Z,99103.16
2022-12-17T13:20:39.596Z,99110.31
2022-12-17T13:23:12.210Z,99111.75
2022-12-17T13:25:44.551Z,99119.81
2022-12-17T13:28:29.859Z,99127.38
2022-12-17T13:31:16.343Z,99130.28
2022-12-17T13:33:54.029Z,99139.38
2022-12-17T13:37:07.269Z,99145.28
2022-12-17T13:40:02.534Z,99150.59
2022-12-17T13:42:36.877Z,99155.28
2022-12-17T13:45:20.076Z,99152.59
2022-12-17T13:47:58.772Z,99156.06
2022-12-17T13:50:34.354Z,99161.63
2022-12-17T13:53:13.552Z,99147.41
2022-12-17T13:55:51.556Z,99141.97
2022-12-17T13:58:29.547Z,99140.50
2022-12-17T14:01:12.801Z,99135.72
2022-12-17T14:04:06.724Z,99143.78
2022-12-17T14:06:39.234Z,99136.03
2022-12-17T14:09:18.728Z,99140.88
2022-12-17T14:12:10.041Z,99139.22
2022-12-17T14:14:47.497Z,99143.00
2022-12-17T14:17:26.116Z,99142.13
2022-12-17T14:20:06.553Z,99132.47
2022-12-17T14:22:50.772Z,99139.06
2022-12-17T14:25:30.079Z,99145.63
2022-12-17T14:28:29.027Z,99152.44
2022-12-17T14:31:29.354Z,99154.81
2022-12-17T14:34:11.159Z,99151.59
2022-12-17T14:36:44.862Z,99142.09
2022-12-17T14:39:31.987Z,99148.44
2022-12-17T14:42:25.898Z,99156.50
2022-12-17T14:45:07.692Z,99159.00
2022-12-17T14:47:40.706Z,99168.03
2022-12-17T14:50:12.618Z,99167.66
2022-12-17T14:52:53.608Z,99167.00
2022-12-17T14:55:58.734Z,99173.53
2022-12-17T14:58:31.551Z,99169.97
2022-12-17T15:01:13.200Z,99158.81
2022-12-17T15:03:49.354Z,99167.16
2022-12-17T15:06:22.652Z,99173.53
2022-12-17T15:08:56.017Z,99174.72
2022-12-17T15:11:29.687Z,99177.47
2022-12-17T15:14:02.677Z,99172.53
2022-12-17T15:16:35.110Z,99170.06
2022-12-17T15:19:14.878Z,99171.09
2022-12-17T15:21:47.448Z,99174.44
2022-12-17T15:24:21.448Z,99189.91
2022-12-17T15:26:53.744Z,99191.13
2022-12-17T15:29:26.617Z,99185.09
2022-12-17T15:31:59.753Z,99183.91
2022-12-17T15:34:32.660Z,99181.78
2022-12-17T15:37:05.751Z,99189.97
2022-12-17T15:39:37.808Z,99192.78
2022-12-17T15:42:29.513Z,99182.78
2022-12-17T15:45:01.581Z,99180.06
2022-12-17T15:47:33.900Z,99184.19
2022-12-17T15:50:07.824Z,99188.13
2022-12-17T15:52:40.589Z,99190.13
2022-12-17T15:55:13.004Z,99187.47
2022-12-17T15:57:45.075Z,99180.22
2022-12-17T16:00:18.734Z,99188.41
2022-12-17T16:02:51.568Z,99191.09
2022-12-17T16:05:24.616Z,99189.19
2022-12-17T16:07:59.226Z,99181.09
2022-12-17T16:10:32.442Z,99181.72
2022-12-17T16:13:05.192Z,99183.53
2022-12-17T16:15:37.934Z,99173.16
2022-12-17T16:18:10.102Z,99164.53
2022-12-17T16:20:44.061Z,99162.63
2022-12-17T16:23:17.151Z,99159.69
2022-12-17T16:26:01.580Z,99179.13
2022-12-17T16:28:36.627Z,99177.31
2022-12-17T16:31:14.376Z,99183.53
2022-12-17T16:33:48.384Z,99172.38
2022-12-17T16:36:22.955Z,99189.66
2022-12-17T16:38:55.752Z,99189.69
2022-12-17T16:41:28.496Z,99186.56
2022-12-17T16:44:01.456Z,99189.63
2022-12-17T16:46:40.187Z,99185.84
2022-12-17T16:49:19.561Z,99179.84
2022-12-17T16:54:46.725Z,99188.91
2022-12-17T16:57:18.642Z,99186.06
2022-12-17T16:59:51.790Z,99190.38
2022-12-17T17:02:24.355Z,99186.44
2022-12-17T17:04:57.690Z,99187.59
2022-12-17T17:07:30.060Z,99190.66
2022-12-17T17:10:01.984Z,99185.03
2022-12-17T17:12:34.805Z,99180.59
2022-12-17T17:15:07.800Z,99183.97
2022-12-17T17:17:54.029Z,99196.53
2022-12-17T17:20:32.278Z,99186.03
2022-12-17T17:23:05.544Z,99188.91
2022-12-17T17:25:57.409Z,99191.16
2022-12-17T17:28:30.374Z,99188.66
2022-12-17T17:31:05.348Z,99180.88
2022-12-17T17:33:41.377Z,99181.25
2022-12-17T17:36:29.375Z,99189.03
2022-12-17T17:39:02.986Z,99186.72
2022-12-17T17:41:35.876Z,99182.09
2022-12-17T17:44:11.645Z,99186.34
2022-12-17T17:46:44.457Z,99198.19
2022-12-17T17:49:17.505Z,99196.81
2022-12-17T17:54:43.834Z,99223.00
2022-12-17T17:57:16.716Z,99224.94
2022-12-17T17:59:49.199Z,99217.13
2022-12-17T18:02:21.453Z,99217.78
2022-12-17T18:04:54.736Z,99222.75
2022-12-17T18:07:27.493Z,99220.44
2022-12-17T18:10:00.513Z,99227.59
2022-12-17T18:12:50.756Z,99227.06
2022-12-17T18:15:23.512Z,99225.81
2022-12-17T18:17:55.382Z,99236.13
2022-12-17T18:20:28.234Z,99249.69
2022-12-17T18:23:00.341Z,99261.06
2022-12-17T18:25:37.676Z,99257.94
2022-12-17T18:28:09.906Z,99252.66
2022-12-17T18:30:45.520Z,99259.00
2022-12-17T18:33:17.569Z,99260.41
2022-12-17T18:35:50.973Z,99261.25
2022-12-17T18:38:23.032Z,99267.59
2022-12-17T18:40:56.569Z,99260.22
2022-12-17T18:43:28.642Z,99259.00
2022-12-17T18:46:04.809Z,99264.69
2022-12-17T18:48:37.995Z,99273.09
2022-12-17T18:51:10.833Z,99269.63
2022-12-17T18:53:43.832Z,99274.63
2022-12-17T18:56:31.658Z,99281.13
2022-12-17T18:59:13.322Z,99265.19
2022-12-17T19:01:47.230Z,99272.56
2022-12-17T19:04:21.618Z,99264.53
2022-12-17T19:06:55.071Z,99271.75
2022-12-17T19:09:38.410Z,99272.59
2022-12-17T19:12:11.272Z,99284.56
2022-12-17T19:14:43.730Z,99286.66
2022-12-17T19:17:16.208Z,99286.13
2022-12-17T19:19:48.476Z,99298.28
2022-12-17T19:22:21.193Z,99298.81
2022-12-17T19:24:53.738Z,99303.28
2022-12-17T19:27:26.878Z,99314.25
2022-12-17T19:29:58.823Z,99318.53
2022-12-17T19:32:31.518Z,99320.75
2022-12-17T19:35:04.005Z,99304.47
2022-12-17T19:37:35.934Z,99310.13
2022-12-17T19:40:09.849Z,99309.44
2022-12-17T19:42:41.859Z,99297.78
2022-12-17T19:45:15.882Z,99309.97
2022-12-17T19:47:49.660Z,99315.28
2022-12-17T19:50:21.570Z,99309.28
2022-12-17T19:52:54.379Z,99314.06
2022-12-17T19:55:26.348Z,99314.56
2022-12-17T19:58:21.091Z,99315.78
2022-12-17T20:00:53.057Z,99317.50
2022-12-17T20:03:26.712Z,99317.34
2022-12-17T20:05:59.381Z,99313.91
2022-12-17T20:08:33.176Z,99313.88
2022-12-17T20:11:26.486Z,99315.78
2022-12-17T20:14:14.937Z,99303.78
2022-12-17T20:16:54.124Z,99303.63
2022-12-17T20:19:31.759Z,99311.50
2022-12-17T20:22:05.267Z,99313.03
2022-12-17T20:24:39.692Z,99304.63
2022-12-17T20:27:11.623Z,99305.59
2022-12-17T20:29:44.399Z,99311.66
2022-12-17T20:32:19.291Z,99306.19
2022-12-17T20:34:52.658Z,99304.47
2022-12-17T20:37:24.987Z,99305.13
2022-12-17T20:39:56.887Z,99306.19
2022-12-17T20:42:32.559Z,99298.81
2022-12-17T20:45:04.827Z,99299.16
2022-12-17T20:47:40.459Z,99296.41
2022-12-17T20:50:13.312Z,99285.78
2022-12-17T20:52:45.229Z,99288.50
2022-12-17T20:55:18.078Z,99277.91
2022-12-17T20:57:50.302Z,99286.50
2022-12-17T21:00:23.050Z,99288.16
2022-12-17T21:02:59.929Z,99295.69
2022-12-17T21:05:36.060Z,99286.28
2022-12-17T21:08:08.462Z,99296.41
2022-12-17T21:10:41.189Z,99301.91
2022-12-17T21:13:31.121Z,99297.94
2022-12-17T21:16:08.144Z,99293.34
2022-12-17T21:18:41.122Z,99294.00
2022-12-17T21:21:18.679Z,99299.34
2022-12-17T21:23:51.464Z,99304.81
2022-12-17T21:26:31.446Z,99294.88
2022-12-17T21:29:06.068Z,99282.84
2022-12-17T21:31:53.022Z,99285.38
2022-12-17T21:34:29.054Z,99297.91
2022-12-17T21:37:02.190Z,99296.53
2022-12-17T21:39:34.520Z,99298.78
2022-12-17T21:42:25.459Z,99294.16
2022-12-17T21:44:57.828Z,99300.97
2022-12-17T21:47:30.341Z,99317.28
2022-12-17T21:50:03.167Z,99314.03
2022-12-17T21:52:35.893Z,99305.16
2022-12-17T21:55:08.574Z,99306.50
2022-12-17T21:57:40.863Z,99306.34
2022-12-17T22:00:14.369Z,99310.13
2022-12-17T22:02:47.509Z,99306.56
2022-12-17T22:05:23.577Z,99300.19
2022-12-17T22:07:56.383Z,99306.50
2022-12-17T22:10:36.783Z,99308.72
2022-12-17T22:13:35.883Z,99310.13
2022-12-17T22:16:09.024Z,99300.34
2022-12-17T22:18:41.220Z,99294.88
2022-12-17T22:21:14.164Z,99291.28
2022-12-17T22:23:48.197Z,99303.63
2022-12-17T22:26:21.714Z,99300.34
2022-12-17T22:28:54.055Z,99299.00
2022-12-17T22:31:46.061Z,99298.97
2022-12-17T22:35:28.922Z,99304.97
2022-12-17T22:40:06.150Z,99307.22
2022-12-17T22:44:35.059Z,99306.69
2022-12-17T22:44:42.341Z,99305.88
2022-12-17T22:46:07.945Z,99319.03
2022-12-17T22:48:40.978Z,99324.34
2022-12-17T22:51:21.059Z,99333.47
2022-12-17T22:54:06.448Z,99341.00
2022-12-17T22:57:12.853Z,99341.84
2022-12-17T22:59:33.930Z,99335.81
2022-12-17T23:02:08.419Z,99338.38
2022-12-17T23:04:42.456Z,99343.38
2022-12-17T23:07:14.936Z,99347.16
2022-12-17T23:09:47.093Z,99345.47
2022-12-17T23:12:37.926Z,99346.84
2022-12-17T23:15:10.673Z,99341.84
2022-12-17T23:17:43.679Z,99332.56
2022-12-17T23:20:16.935Z,99320.56
2022-12-17T23:22:48.941Z,99316.81
2022-12-17T23:25:23.758Z,99311.31
2022-12-17T23:27:55.804Z,99323.16
2022-12-17T23:30:28.591Z,99316.81
2022-12-17T23:33:00.545Z,99322.31
2022-12-17T23:35:33.268Z,99331.72
2022-12-17T23:38:05.679Z,99333.78
2022-12-17T23:40:37.580Z,99319.22
2022-12-17T23:43:15.815Z,99309.09
2022-12-17T23:45:49.804Z,99319.22
2022-12-17T23:48:22.667Z,99334.50
2022-12-17T23:50:54.549Z,99331.41
2022-12-17T23:53:29.519Z,99325.53
2022-12-17T23:56:32.588Z,99320.00
2022-12-17T23:59:04.612Z,99316.50
